• Join FlightAware (Why Join?)
  • Login
  • US Flag 
09:29PM EDT


 

Airport Tracker/Info


-or-


 

Live Flight TrackerFlight Track Log ✈ EJA820 ✈ 23-Apr-2013 ✈ KACY - KEYF

Flight Track Log - Related Links

Times and Time Zones

All times are in EDT time to prevent confusion due to time zone crossing. See the EJA820 flight status page for this flight to view local times or setup timezone preferences in your user account.

Time Position Orientation Groundspeed Altitude Reporting Facility
EDT Latitude Longitude Course Direction KTS MPH feet Rate Location/Type
08:10AM 39.4839 -74.5617 108° East 180 207 2,300  Level Washington Center
08:11AM 39.4689 -74.5028 108° East 261 300 5,100 2,340 Climbing Washington Center
08:12AM 39.3983 -74.5333 199° South 281 323 7,000 1,380 Climbing Washington Center
08:13AM 39.3406 -74.5986 221° Southwest 281 323 7,900 1,200 Climbing Washington Center
08:14AM 39.2828 -74.6664 222° Southwest 281 323 9,400 1,020 Climbing Washington Center
08:15AM 39.2167 -74.7450 223° Southwest 301 346 10,000 300 Climbing Washington Center
08:16AM 39.1483 -74.8233 222° Southwest 323 372 10,000  Level Washington Center
08:17AM 39.0967 -74.8989 229° Southwest 323 372 10,000 360 Level Washington Center
08:18AM 39.0431 -74.9931 234° Southwest 329 379 10,800 1,200 Climbing Washington Center
08:19AM 38.9872 -75.0761 229° Southwest 324 373 12,400 1,980 Climbing Washington Center
08:20AM 38.9039 -75.1303 207° Southwest 317 365 14,800 1,980 Climbing Washington Center
08:21AM 38.8167 -75.1919 209° Southwest 339 390 16,500 1,080 Climbing Washington Center
08:22AM 38.7272 -75.2483 206° Southwest 352 405 17,000 180 Climbing Washington Center
08:23AM 38.6397 -75.3100 209° Southwest 364 419 16,900 -60 Descending Washington Center
08:24AM 38.5503 -75.3739 209° Southwest 364 419 16,900 540 Level Washington Center
08:25AM 38.4669 -75.4325 209° Southwest 364 419 18,000 1,140 Climbing Washington Center
08:26AM 38.3817 -75.4911 208° Southwest 358 412 19,200 1,380 Climbing Washington Center
08:27AM 38.2942 -75.5336 201° Southwest 343 395 20,900 1,560 Climbing Washington Center
08:28AM 38.2064 -75.5758 201° Southwest 343 395 22,400 1,500 Climbing Washington Center
08:29AM 38.1169 -75.6233 203° Southwest 343 395 23,900 1,560 Climbing Washington Center
08:30AM 38.0314 -75.6894 211° Southwest 343 395 25,600 1,560 Climbing Washington Center
08:31AM 37.9500 -75.7525 211° Southwest 337 388 27,100 1,500 Climbing Washington Center
08:32AM 37.8747 -75.8075 210° Southwest 332 382 28,700 1,260 Climbing Washington Center
08:33AM 37.7994 -75.8519 205° Southwest 332 382 29,700 600 Climbing Washington Center
08:34AM 37.7161 -75.9200 213° Southwest 332 382 30,000 120 Climbing Washington Center
08:35AM 37.6303 -75.9825 210° Southwest 338 389 30,000 360 Level Washington Center
08:36AM 37.5444 -76.0450 210° Southwest 356 410 30,800 180 Climbing Washington Center
08:37AM 37.4567 -76.1072 209° Southwest 361 415 30,400 -420 Descending Washington Center
08:38AM 37.3708 -76.1667 209° Southwest 367 422 30,000 -240 Descending Washington Center
08:39AM 37.2872 -76.2419 216° Southwest 377 434 30,000  Level Washington Center
08:40AM 37.2053 -76.3194 217° Southwest 377 434 30,000  Level Washington Center
08:41AM 37.1192 -76.3967 216° Southwest 377 434 30,000  Level Washington Center
08:42AM 37.0333 -76.4714 215° Southwest 383 441 30,000  Level Washington Center
08:43AM 36.9450 -76.5508 216° Southwest 383 441 30,000  Level Washington Center
08:44AM 36.8547 -76.6275 214° Southwest 391 450 30,000  Level Washington Center
08:45AM 36.7481 -76.6392 185° South 380 437 30,000  Level Washington Center
08:46AM 36.6372 -76.6894 200° South 385 443 30,000  Level Washington Center
08:47AM 36.5406 -76.7578 210° Southwest 385 443 30,000  Level Washington Center
08:48AM 36.4564 -76.8161 209° Southwest 391 450 30,000  Level Washington Center
08:49AM 36.3536 -76.8892 210° Southwest 396 456 30,000  Level Washington Center
08:50AM 36.2653 -76.9469 208° Southwest 401 461 30,000  Level Washington Center
08:51AM 36.1683 -77.0147 209° Southwest 401 461 30,000  Level Washington Center
08:52AM 36.0717 -77.0850 210° Southwest 401 461 30,000  Level Washington Center
08:53AM 35.9644 -77.1547 208° Southwest 401 461 30,000  Level Washington Center
08:54AM 35.8675 -77.2247 210° Southwest 403 464 30,000  Level Washington Center
08:55AM 35.7642 -77.2892 207° Southwest 403 464 30,000  Level Washington Center
08:56AM 35.6653 -77.3611 211° Southwest 409 471 30,000  Level Washington Center
08:57AM 35.5642 -77.4278 208° Southwest 409 471 30,000 -600 Level Washington Center
08:58AM 35.4628 -77.4944 208° Southwest 414 476 28,800 -1,380 Descending Washington Center
08:59AM 35.3700 -77.5636 211° Southwest 414 476 27,300 -1,500 Descending Washington Center
09:00AM 35.2953 -77.6636 228° Southwest 403 464 25,900 -1,500 Descending Washington Center
09:01AM 35.2206 -77.7608 227° Southwest 396 456 24,400 -1,500 Descending Washington Center
09:02AM 35.1478 -77.8603 228° Southwest 396 456 22,900 -1,500 Descending Washington Center
09:03AM 35.0769 -77.9550 228° Southwest 391 450 21,500 -1,500 Descending Washington Center
09:04AM 35.0083 -78.0467 228° Southwest 381 438 20,000 -1,740 Descending Washington Center
09:05AM 34.9397 -78.1308 225° Southwest 375 432 18,000 -1,800 Descending Washington Center
09:06AM 34.8658 -78.1792 208° Southwest 341 392 16,500 -1,800 Descending Washington Center
09:07AM 34.7856 -78.2219 204° Southwest 327 376 14,500 -2,460 Descending Washington Center
09:08AM 34.7117 -78.2625 204° Southwest 298 343 11,600 -3,000 Descending Washington Center
09:09AM 34.6356 -78.3006 202° Southwest 293 337 8,500 -2,940 Descending Washington Center
09:10AM 34.5619 -78.3358 202° Southwest 293 337 5,800 -2,280 Descending Washington Center
09:11AM 34.5006 -78.3742 207° Southwest 293 337 4,000 -1,380 Descending Washington Center
09:12AM 34.4681 -78.4258 233° Southwest 241 277 3,100 -600 Descending Washington Center
09:13AM 34.4772 -78.4717 284° West 161 185 2,900 -600 Descending Washington Center
09:14AM 34.5036 -78.5003 318° Northwest 121 139 1,900 -600 Descending Washington Center
09:15AM 34.5303 -78.5214 327° Northwest 109 125 1,700 -300 Descending Washington Center
09:16AM 34.5525 -78.5472 316° Northwest 109 125 1,300 -420 Descending Washington Center